Terminal Aerodrome Forecast
Issued by NWS

Home | Current Version | Previous Version | Graphics & Text | Print | Product List | Glossary On
Versions: 1 2 3 4 5 6 7 8 9 10 11 12 13
341
FTUS45 KGGW 060520
TAFSDY
TAF
KSDY 060520Z 0606/0706 20011KT P6SM BKN150
     FM060900 25013KT P6SM BKN150 WS020/28040KT
     FM061800 26021G35KT P6SM BKN250
      AMD LTD TO CLD VIS AND WIND=

USA.gov is the U.S. government's official web portal to all federal, state and local government web resources and services.